sensor_id;sensor_type;location;lat;lon;timestamp;temperature;humidity
29713;DHT22;16623;53.632;10.016;2022-10-16T00:01:18;14.60;99.90
29713;DHT22;16623;53.632;10.016;2022-10-16T00:03:45;14.60;99.90
29713;DHT22;16623;53.632;10.016;2022-10-16T00:06:12;14.60;99.90
29713;DHT22;16623;53.632;10.016;2022-10-16T00:08:39;14.60;99.90
29713;DHT22;16623;53.632;10.016;2022-10-16T00:11:07;14.60;99.90
29713;DHT22;16623;53.632;10.016;2022-10-16T00:13:34;14.60;99.90
29713;DHT22;16623;53.632;10.016;2022-10-16T00:16:00;14.60;99.90
29713;DHT22;16623;53.632;10.016;2022-10-16T00:18:27;14.60;99.90
29713;DHT22;16623;53.632;10.016;2022-10-16T00:20:53;14.60;99.90
29713;DHT22;16623;53.632;10.016;2022-10-16T00:23:19;14.60;99.90
29713;DHT22;16623;53.632;10.016;2022-10-16T00:25:53;14.60;99.90
29713;DHT22;16623;53.632;10.016;2022-10-16T00:28:21;14.60;99.90
29713;DHT22;16623;53.632;10.016;2022-10-16T00:30:46;14.70;99.90
29713;DHT22;16623;53.632;10.016;2022-10-16T00:33:12;14.60;99.90
29713;DHT22;16623;53.632;10.016;2022-10-16T00:35:37;14.60;99.90
29713;DHT22;16623;53.632;10.016;2022-10-16T00:38:03;14.60;99.90
29713;DHT22;16623;53.632;10.016;2022-10-16T00:40:28;14.60;99.90
29713;DHT22;16623;53.632;10.016;2022-10-16T00:42:54;14.70;99.90
29713;DHT22;16623;53.632;10.016;2022-10-16T00:45:19;14.70;99.90
29713;DHT22;16623;53.632;10.016;2022-10-16T00:47:46;14.70;99.90
29713;DHT22;16623;53.632;10.016;2022-10-16T00:50:26;14.70;99.90
29713;DHT22;16623;53.632;10.016;2022-10-16T00:52:52;14.70;99.90
29713;DHT22;16623;53.632;10.016;2022-10-16T00:55:19;14.70;99.90
29713;DHT22;16623;53.632;10.016;2022-10-16T00:57:45;14.70;99.90
29713;DHT22;16623;53.632;10.016;2022-10-16T01:00:17;14.80;99.90
29713;DHT22;16623;53.632;10.016;2022-10-16T01:02:43;14.80;99.90
29713;DHT22;16623;53.632;10.016;2022-10-16T01:05:09;14.80;99.90
29713;DHT22;16623;53.632;10.016;2022-10-16T01:08:08;14.80;99.90
29713;DHT22;16623;53.632;10.016;2022-10-16T01:10:57;14.80;99.90
29713;DHT22;16623;53.632;10.016;2022-10-16T01:13:38;14.70;99.90
29713;DHT22;16623;53.632;10.016;2022-10-16T01:16:28;14.70;99.90
29713;DHT22;16623;53.632;10.016;2022-10-16T01:21:48;14.70;99.90
29713;DHT22;16623;53.632;10.016;2022-10-16T01:27:11;14.70;99.90
29713;DHT22;16623;53.632;10.016;2022-10-16T01:30:02;14.80;99.90
29713;DHT22;16623;53.632;10.016;2022-10-16T01:35:46;14.60;99.90
29713;DHT22;16623;53.632;10.016;2022-10-16T01:38:30;14.60;99.90
29713;DHT22;16623;53.632;10.016;2022-10-16T01:41:10;14.60;99.90
29713;DHT22;16623;53.632;10.016;2022-10-16T01:43:49;14.50;99.90
29713;DHT22;16623;53.632;10.016;2022-10-16T01:46:20;14.50;99.90
29713;DHT22;16623;53.632;10.016;2022-10-16T01:48:48;14.40;99.90
29713;DHT22;16623;53.632;10.016;2022-10-16T01:51:16;14.50;99.90
29713;DHT22;16623;53.632;10.016;2022-10-16T01:53:50;14.40;99.90
29713;DHT22;16623;53.632;10.016;2022-10-16T01:56:18;14.40;99.90
29713;DHT22;16623;53.632;10.016;2022-10-16T01:58:54;14.40;99.90
29713;DHT22;16623;53.632;10.016;2022-10-16T02:01:22;14.40;99.90
29713;DHT22;16623;53.632;10.016;2022-10-16T02:03:51;14.30;99.90
29713;DHT22;16623;53.632;10.016;2022-10-16T02:06:18;14.40;99.90
29713;DHT22;16623;53.632;10.016;2022-10-16T02:08:44;14.40;99.90
29713;DHT22;16623;53.632;10.016;2022-10-16T02:11:10;14.40;99.90
29713;DHT22;16623;53.632;10.016;2022-10-16T02:13:46;14.40;99.90
29713;DHT22;16623;53.632;10.016;2022-10-16T02:16:14;14.30;99.90
29713;DHT22;16623;53.632;10.016;2022-10-16T02:18:41;14.30;99.90
29713;DHT22;16623;53.632;10.016;2022-10-16T02:21:22;14.30;99.90
29713;DHT22;16623;53.632;10.016;2022-10-16T02:24:03;14.20;99.90
29713;DHT22;16623;53.632;10.016;2022-10-16T02:29:13;14.30;99.90
29713;DHT22;16623;53.632;10.016;2022-10-16T02:31:45;14.20;99.90
29713;DHT22;16623;53.632;10.016;2022-10-16T02:34:13;14.20;99.90
29713;DHT22;16623;53.632;10.016;2022-10-16T02:36:40;14.20;99.90
29713;DHT22;16623;53.632;10.016;2022-10-16T02:39:06;14.20;99.90
29713;DHT22;16623;53.632;10.016;2022-10-16T02:41:32;14.20;99.90
29713;DHT22;16623;53.632;10.016;2022-10-16T02:43:58;14.20;99.90
29713;DHT22;16623;53.632;10.016;2022-10-16T02:46:24;14.20;99.90
29713;DHT22;16623;53.632;10.016;2022-10-16T02:48:49;14.10;99.90
29713;DHT22;16623;53.632;10.016;2022-10-16T02:51:15;14.10;99.90
29713;DHT22;16623;53.632;10.016;2022-10-16T02:53:40;14.00;99.90
29713;DHT22;16623;53.632;10.016;2022-10-16T02:56:06;14.10;99.90
29713;DHT22;16623;53.632;10.016;2022-10-16T02:58:32;14.00;99.90
29713;DHT22;16623;53.632;10.016;2022-10-16T03:00:57;14.00;99.90
29713;DHT22;16623;53.632;10.016;2022-10-16T03:03:23;13.90;99.90
29713;DHT22;16623;53.632;10.016;2022-10-16T03:05:48;13.90;99.90
29713;DHT22;16623;53.632;10.016;2022-10-16T03:08:14;14.00;99.90
29713;DHT22;16623;53.632;10.016;2022-10-16T03:10:40;13.90;99.90
29713;DHT22;16623;53.632;10.016;2022-10-16T03:13:05;13.90;99.90
29713;DHT22;16623;53.632;10.016;2022-10-16T03:15:31;13.90;99.90
29713;DHT22;16623;53.632;10.016;2022-10-16T03:18:00;13.80;99.90
29713;DHT22;16623;53.632;10.016;2022-10-16T03:20:26;13.80;99.90
29713;DHT22;16623;53.632;10.016;2022-10-16T03:22:51;13.70;99.90
29713;DHT22;16623;53.632;10.016;2022-10-16T03:25:19;13.80;99.90
29713;DHT22;16623;53.632;10.016;2022-10-16T03:27:45;13.70;99.90
29713;DHT22;16623;53.632;10.016;2022-10-16T03:30:11;13.70;99.90
29713;DHT22;16623;53.632;10.016;2022-10-16T03:32:36;13.80;99.90
29713;DHT22;16623;53.632;10.016;2022-10-16T03:35:02;13.90;99.90
29713;DHT22;16623;53.632;10.016;2022-10-16T03:37:28;13.70;99.90
29713;DHT22;16623;53.632;10.016;2022-10-16T03:39:53;13.70;99.90
29713;DHT22;16623;53.632;10.016;2022-10-16T03:42:19;13.70;99.90
29713;DHT22;16623;53.632;10.016;2022-10-16T03:44:44;13.70;99.90
29713;DHT22;16623;53.632;10.016;2022-10-16T03:47:10;13.70;99.90
29713;DHT22;16623;53.632;10.016;2022-10-16T03:49:35;13.70;99.90
29713;DHT22;16623;53.632;10.016;2022-10-16T03:52:01;13.60;99.90
29713;DHT22;16623;53.632;10.016;2022-10-16T03:54:26;13.70;99.90
29713;DHT22;16623;53.632;10.016;2022-10-16T03:56:52;13.60;99.90
29713;DHT22;16623;53.632;10.016;2022-10-16T03:59:18;13.60;99.90
29713;DHT22;16623;53.632;10.016;2022-10-16T04:01:43;13.60;99.90
29713;DHT22;16623;53.632;10.016;2022-10-16T04:04:09;13.70;99.90
29713;DHT22;16623;53.632;10.016;2022-10-16T04:06:35;13.70;99.90
29713;DHT22;16623;53.632;10.016;2022-10-16T04:09:00;13.70;99.90
29713;DHT22;16623;53.632;10.016;2022-10-16T04:11:26;13.70;99.90
29713;DHT22;16623;53.632;10.016;2022-10-16T04:13:51;13.70;99.90
29713;DHT22;16623;53.632;10.016;2022-10-16T04:16:17;13.70;99.90
29713;DHT22;16623;53.632;10.016;2022-10-16T04:18:42;13.70;99.90
29713;DHT22;16623;53.632;10.016;2022-10-16T04:21:08;13.60;99.90
29713;DHT22;16623;53.632;10.016;2022-10-16T04:23:34;13.70;99.90
29713;DHT22;16623;53.632;10.016;2022-10-16T04:26:00;13.60;99.90
29713;DHT22;16623;53.632;10.016;2022-10-16T04:28:25;13.60;99.90
29713;DHT22;16623;53.632;10.016;2022-10-16T04:30:51;13.70;99.90
29713;DHT22;16623;53.632;10.016;2022-10-16T04:33:17;13.70;99.90
29713;DHT22;16623;53.632;10.016;2022-10-16T04:35:43;13.70;99.90
29713;DHT22;16623;53.632;10.016;2022-10-16T04:38:08;13.70;99.90
29713;DHT22;16623;53.632;10.016;2022-10-16T04:40:34;13.70;99.90
29713;DHT22;16623;53.632;10.016;2022-10-16T04:43:02;13.70;99.90
29713;DHT22;16623;53.632;10.016;2022-10-16T04:45:29;13.70;99.90
29713;DHT22;16623;53.632;10.016;2022-10-16T04:47:58;13.60;99.90
29713;DHT22;16623;53.632;10.016;2022-10-16T04:50:23;13.60;99.90
29713;DHT22;16623;53.632;10.016;2022-10-16T04:52:49;13.60;99.90
29713;DHT22;16623;53.632;10.016;2022-10-16T04:55:15;13.60;99.90
29713;DHT22;16623;53.632;10.016;2022-10-16T04:57:40;13.60;99.90
29713;DHT22;16623;53.632;10.016;2022-10-16T05:00:06;13.60;99.90
29713;DHT22;16623;53.632;10.016;2022-10-16T05:02:33;13.60;99.90
29713;DHT22;16623;53.632;10.016;2022-10-16T05:04:59;13.50;99.90
29713;DHT22;16623;53.632;10.016;2022-10-16T05:07:24;13.50;99.90
29713;DHT22;16623;53.632;10.016;2022-10-16T05:09:50;13.50;99.90
29713;DHT22;16623;53.632;10.016;2022-10-16T05:12:16;13.50;99.90
29713;DHT22;16623;53.632;10.016;2022-10-16T05:14:41;13.60;99.90
29713;DHT22;16623;53.632;10.016;2022-10-16T05:17:07;13.50;99.90
29713;DHT22;16623;53.632;10.016;2022-10-16T05:19:33;13.60;99.90
29713;DHT22;16623;53.632;10.016;2022-10-16T05:21:58;13.60;99.90
29713;DHT22;16623;53.632;10.016;2022-10-16T05:24:24;13.60;99.90
29713;DHT22;16623;53.632;10.016;2022-10-16T05:26:50;13.60;99.90
29713;DHT22;16623;53.632;10.016;2022-10-16T05:29:15;13.60;99.90
29713;DHT22;16623;53.632;10.016;2022-10-16T05:31:41;13.60;99.90
29713;DHT22;16623;53.632;10.016;2022-10-16T05:34:06;13.50;99.90
29713;DHT22;16623;53.632;10.016;2022-10-16T05:36:32;13.50;99.90
29713;DHT22;16623;53.632;10.016;2022-10-16T05:38:58;13.50;99.90
29713;DHT22;16623;53.632;10.016;2022-10-16T05:41:26;13.50;99.90
29713;DHT22;16623;53.632;10.016;2022-10-16T05:43:52;13.60;99.90
29713;DHT22;16623;53.632;10.016;2022-10-16T05:46:18;13.60;99.90
29713;DHT22;16623;53.632;10.016;2022-10-16T05:48:44;13.60;99.90
29713;DHT22;16623;53.632;10.016;2022-10-16T05:51:12;13.60;99.90
29713;DHT22;16623;53.632;10.016;2022-10-16T05:53:39;13.60;99.90
29713;DHT22;16623;53.632;10.016;2022-10-16T05:56:06;13.70;99.90
29713;DHT22;16623;53.632;10.016;2022-10-16T05:58:34;13.70;99.90
29713;DHT22;16623;53.632;10.016;2022-10-16T06:01:04;13.70;99.90
29713;DHT22;16623;53.632;10.016;2022-10-16T06:03:30;13.70;99.90
29713;DHT22;16623;53.632;10.016;2022-10-16T06:05:56;13.70;99.90
29713;DHT22;16623;53.632;10.016;2022-10-16T06:08:22;13.70;99.90
29713;DHT22;16623;53.632;10.016;2022-10-16T06:11:04;13.80;99.90
29713;DHT22;16623;53.632;10.016;2022-10-16T06:13:30;13.90;99.90
29713;DHT22;16623;53.632;10.016;2022-10-16T06:15:58;14.00;99.90
29713;DHT22;16623;53.632;10.016;2022-10-16T06:18:24;14.00;99.90
29713;DHT22;16623;53.632;10.016;2022-10-16T06:20:50;14.00;99.90
29713;DHT22;16623;53.632;10.016;2022-10-16T06:23:15;14.00;99.90
29713;DHT22;16623;53.632;10.016;2022-10-16T06:25:41;14.00;99.90
29713;DHT22;16623;53.632;10.016;2022-10-16T06:28:06;14.00;99.90
29713;DHT22;16623;53.632;10.016;2022-10-16T06:30:32;14.00;99.90
29713;DHT22;16623;53.632;10.016;2022-10-16T06:32:58;14.00;99.90
29713;DHT22;16623;53.632;10.016;2022-10-16T06:35:23;14.00;99.90
29713;DHT22;16623;53.632;10.016;2022-10-16T06:37:49;14.00;99.90
29713;DHT22;16623;53.632;10.016;2022-10-16T06:40:15;14.00;99.90
29713;DHT22;16623;53.632;10.016;2022-10-16T06:42:41;14.00;99.90
29713;DHT22;16623;53.632;10.016;2022-10-16T06:45:07;14.10;99.90
29713;DHT22;16623;53.632;10.016;2022-10-16T06:47:33;14.10;99.90
29713;DHT22;16623;53.632;10.016;2022-10-16T06:49:58;14.10;99.90
29713;DHT22;16623;53.632;10.016;2022-10-16T06:52:24;14.10;99.90
29713;DHT22;16623;53.632;10.016;2022-10-16T06:54:50;14.20;99.90
29713;DHT22;16623;53.632;10.016;2022-10-16T06:57:15;14.20;99.90
29713;DHT22;16623;53.632;10.016;2022-10-16T06:59:41;14.20;99.90
29713;DHT22;16623;53.632;10.016;2022-10-16T07:02:08;14.30;99.90
29713;DHT22;16623;53.632;10.016;2022-10-16T07:04:36;14.40;99.90
29713;DHT22;16623;53.632;10.016;2022-10-16T07:07:01;14.40;99.90
29713;DHT22;16623;53.632;10.016;2022-10-16T07:09:27;14.50;99.90
29713;DHT22;16623;53.632;10.016;2022-10-16T07:11:53;14.50;99.90
29713;DHT22;16623;53.632;10.016;2022-10-16T07:14:20;14.60;99.90
29713;DHT22;16623;53.632;10.016;2022-10-16T07:16:46;14.70;99.90
29713;DHT22;16623;53.632;10.016;2022-10-16T07:19:12;14.90;99.90
29713;DHT22;16623;53.632;10.016;2022-10-16T07:21:40;14.90;99.90
29713;DHT22;16623;53.632;10.016;2022-10-16T07:24:11;14.90;99.90
29713;DHT22;16623;53.632;10.016;2022-10-16T07:26:38;14.90;99.90
29713;DHT22;16623;53.632;10.016;2022-10-16T07:29:11;15.00;99.90
29713;DHT22;16623;53.632;10.016;2022-10-16T07:31:38;15.00;99.90
29713;DHT22;16623;53.632;10.016;2022-10-16T07:34:04;15.00;99.90
29713;DHT22;16623;53.632;10.016;2022-10-16T07:36:29;15.00;99.90
29713;DHT22;16623;53.632;10.016;2022-10-16T07:38:55;15.00;99.90
29713;DHT22;16623;53.632;10.016;2022-10-16T07:41:20;15.00;99.90
29713;DHT22;16623;53.632;10.016;2022-10-16T07:43:47;15.10;99.90
29713;DHT22;16623;53.632;10.016;2022-10-16T07:46:13;15.10;99.90
29713;DHT22;16623;53.632;10.016;2022-10-16T07:48:39;15.20;99.90
29713;DHT22;16623;53.632;10.016;2022-10-16T07:51:06;15.30;99.90
29713;DHT22;16623;53.632;10.016;2022-10-16T07:53:33;15.30;99.90
29713;DHT22;16623;53.632;10.016;2022-10-16T07:56:06;15.40;99.90
29713;DHT22;16623;53.632;10.016;2022-10-16T07:58:32;15.40;99.90
29713;DHT22;16623;53.632;10.016;2022-10-16T08:00:59;15.40;99.90
29713;DHT22;16623;53.632;10.016;2022-10-16T08:03:28;15.30;99.90
29713;DHT22;16623;53.632;10.016;2022-10-16T08:05:53;15.30;99.90
29713;DHT22;16623;53.632;10.016;2022-10-16T08:08:19;15.30;99.90
29713;DHT22;16623;53.632;10.016;2022-10-16T08:10:45;15.20;99.90
29713;DHT22;16623;53.632;10.016;2022-10-16T08:13:10;15.20;99.90
29713;DHT22;16623;53.632;10.016;2022-10-16T08:15:36;15.20;99.90
29713;DHT22;16623;53.632;10.016;2022-10-16T08:18:04;15.20;99.90
29713;DHT22;16623;53.632;10.016;2022-10-16T08:20:30;15.20;99.90
29713;DHT22;16623;53.632;10.016;2022-10-16T08:22:56;15.30;99.90
29713;DHT22;16623;53.632;10.016;2022-10-16T08:25:23;15.30;99.90
29713;DHT22;16623;53.632;10.016;2022-10-16T08:27:50;15.40;99.90
29713;DHT22;16623;53.632;10.016;2022-10-16T08:30:18;15.40;99.90
29713;DHT22;16623;53.632;10.016;2022-10-16T08:32:44;15.40;99.90
29713;DHT22;16623;53.632;10.016;2022-10-16T08:35:11;15.50;99.90
29713;DHT22;16623;53.632;10.016;2022-10-16T08:37:37;15.50;99.90
29713;DHT22;16623;53.632;10.016;2022-10-16T08:40:05;15.50;99.90
29713;DHT22;16623;53.632;10.016;2022-10-16T08:42:47;15.60;99.90
29713;DHT22;16623;53.632;10.016;2022-10-16T08:45:35;15.60;99.90
29713;DHT22;16623;53.632;10.016;2022-10-16T08:48:21;15.50;99.90
29713;DHT22;16623;53.632;10.016;2022-10-16T08:50:50;15.50;99.90
29713;DHT22;16623;53.632;10.016;2022-10-16T08:53:48;15.50;99.90
29713;DHT22;16623;53.632;10.016;2022-10-16T08:56:15;15.50;99.90
29713;DHT22;16623;53.632;10.016;2022-10-16T08:58:41;15.50;99.90
29713;DHT22;16623;53.632;10.016;2022-10-16T09:01:12;15.50;99.90
29713;DHT22;16623;53.632;10.016;2022-10-16T09:06:55;15.70;99.90
29713;DHT22;16623;53.632;10.016;2022-10-16T09:09:36;15.80;99.90
29713;DHT22;16623;53.632;10.016;2022-10-16T09:15:19;16.00;99.90
29713;DHT22;16623;53.632;10.016;2022-10-16T09:18:12;16.10;99.90
29713;DHT22;16623;53.632;10.016;2022-10-16T09:21:21;16.30;99.90
29713;DHT22;16623;53.632;10.016;2022-10-16T09:23:49;16.40;99.90
29713;DHT22;16623;53.632;10.016;2022-10-16T09:26:16;16.50;99.90
29713;DHT22;16623;53.632;10.016;2022-10-16T09:28:42;16.50;99.90
29713;DHT22;16623;53.632;10.016;2022-10-16T09:31:19;16.50;99.90
29713;DHT22;16623;53.632;10.016;2022-10-16T09:33:50;16.60;99.90
29713;DHT22;16623;53.632;10.016;2022-10-16T09:36:16;16.60;99.90
29713;DHT22;16623;53.632;10.016;2022-10-16T09:38:43;16.50;99.90
29713;DHT22;16623;53.632;10.016;2022-10-16T09:43:54;16.70;99.90
29713;DHT22;16623;53.632;10.016;2022-10-16T09:46:32;16.70;99.90
29713;DHT22;16623;53.632;10.016;2022-10-16T09:49:03;16.80;99.90
29713;DHT22;16623;53.632;10.016;2022-10-16T09:51:34;16.90;99.90
29713;DHT22;16623;53.632;10.016;2022-10-16T09:54:12;17.10;99.90
29713;DHT22;16623;53.632;10.016;2022-10-16T09:56:38;17.20;99.90
29713;DHT22;16623;53.632;10.016;2022-10-16T10:01:47;17.30;99.90
29713;DHT22;16623;53.632;10.016;2022-10-16T10:04:18;17.40;99.90
29713;DHT22;16623;53.632;10.016;2022-10-16T10:06:46;17.50;99.90
29713;DHT22;16623;53.632;10.016;2022-10-16T10:09:37;17.70;99.90
29713;DHT22;16623;53.632;10.016;2022-10-16T10:12:05;17.80;99.90
29713;DHT22;16623;53.632;10.016;2022-10-16T10:14:37;18.10;99.90
29713;DHT22;16623;53.632;10.016;2022-10-16T10:17:11;18.30;99.90
29713;DHT22;16623;53.632;10.016;2022-10-16T10:19:50;18.50;99.90
29713;DHT22;16623;53.632;10.016;2022-10-16T10:25:23;18.70;99.90
29713;DHT22;16623;53.632;10.016;2022-10-16T10:28:17;18.80;99.90
29713;DHT22;16623;53.632;10.016;2022-10-16T10:31:20;18.80;99.90
29713;DHT22;16623;53.632;10.016;2022-10-16T10:36:47;18.50;99.90
29713;DHT22;16623;53.632;10.016;2022-10-16T10:39:31;18.30;99.90
29713;DHT22;16623;53.632;10.016;2022-10-16T10:42:14;18.20;99.90
29713;DHT22;16623;53.632;10.016;2022-10-16T10:47:59;18.10;99.90
29713;DHT22;16623;53.632;10.016;2022-10-16T10:53:36;18.10;99.90
29713;DHT22;16623;53.632;10.016;2022-10-16T10:56:28;18.20;99.90
29713;DHT22;16623;53.632;10.016;2022-10-16T10:59:31;18.30;99.90
29713;DHT22;16623;53.632;10.016;2022-10-16T11:02:24;18.40;99.90
29713;DHT22;16623;53.632;10.016;2022-10-16T11:05:17;18.50;99.90
29713;DHT22;16623;53.632;10.016;2022-10-16T11:08:00;18.60;99.90
29713;DHT22;16623;53.632;10.016;2022-10-16T11:11:14;18.50;99.90
29713;DHT22;16623;53.632;10.016;2022-10-16T11:16:35;18.60;99.90
29713;DHT22;16623;53.632;10.016;2022-10-16T11:19:21;18.70;99.90
29713;DHT22;16623;53.632;10.016;2022-10-16T11:30:30;18.90;99.90
29713;DHT22;16623;53.632;10.016;2022-10-16T11:33:09;18.90;99.90
29713;DHT22;16623;53.632;10.016;2022-10-16T11:35:49;18.90;99.90
29713;DHT22;16623;53.632;10.016;2022-10-16T11:41:08;18.80;99.90
29713;DHT22;16623;53.632;10.016;2022-10-16T11:43:40;18.80;99.90
29713;DHT22;16623;53.632;10.016;2022-10-16T11:46:18;18.80;99.90
29713;DHT22;16623;53.632;10.016;2022-10-16T11:48:54;18.60;99.90
29713;DHT22;16623;53.632;10.016;2022-10-16T11:51:35;18.60;99.90
29713;DHT22;16623;53.632;10.016;2022-10-16T11:57:08;18.70;99.90
29713;DHT22;16623;53.632;10.016;2022-10-16T12:04:52;18.80;99.90
29713;DHT22;16623;53.632;10.016;2022-10-16T12:07:24;18.70;99.90
29713;DHT22;16623;53.632;10.016;2022-10-16T12:09:52;18.80;99.90
29713;DHT22;16623;53.632;10.016;2022-10-16T12:12:47;18.80;99.90
29713;DHT22;16623;53.632;10.016;2022-10-16T12:15:24;18.80;99.90
29713;DHT22;16623;53.632;10.016;2022-10-16T12:17:51;18.90;99.90
29713;DHT22;16623;53.632;10.016;2022-10-16T12:22:51;18.80;99.90
29713;DHT22;16623;53.632;10.016;2022-10-16T12:25:28;18.80;99.90
29713;DHT22;16623;53.632;10.016;2022-10-16T12:27:55;18.80;99.90
29713;DHT22;16623;53.632;10.016;2022-10-16T12:30:24;18.80;99.90
29713;DHT22;16623;53.632;10.016;2022-10-16T12:32:55;18.90;99.90
29713;DHT22;16623;53.632;10.016;2022-10-16T12:35:23;18.90;99.90
29713;DHT22;16623;53.632;10.016;2022-10-16T12:37:51;19.00;99.90
29713;DHT22;16623;53.632;10.016;2022-10-16T12:40:28;18.90;99.90
29713;DHT22;16623;53.632;10.016;2022-10-16T12:42:55;19.00;99.90
29713;DHT22;16623;53.632;10.016;2022-10-16T12:45:32;19.10;99.90
29713;DHT22;16623;53.632;10.016;2022-10-16T12:48:00;21.70;99.90
29713;DHT22;16623;53.632;10.016;2022-10-16T12:50:33;19.20;99.90
29713;DHT22;16623;53.632;10.016;2022-10-16T12:53:00;19.20;99.90
29713;DHT22;16623;53.632;10.016;2022-10-16T12:55:33;19.20;99.90
29713;DHT22;16623;53.632;10.016;2022-10-16T12:58:12;19.10;99.90
29713;DHT22;16623;53.632;10.016;2022-10-16T13:00:57;19.00;99.90
29713;DHT22;16623;53.632;10.016;2022-10-16T13:03:57;19.00;99.90
29713;DHT22;16623;53.632;10.016;2022-10-16T13:15:07;18.90;99.90
29713;DHT22;16623;53.632;10.016;2022-10-16T13:17:45;19.00;99.90
29713;DHT22;16623;53.632;10.016;2022-10-16T13:20:28;19.00;99.90
29713;DHT22;16623;53.632;10.016;2022-10-16T13:23:27;19.00;99.90
29713;DHT22;16623;53.632;10.016;2022-10-16T13:26:05;18.90;99.90
29713;DHT22;16623;53.632;10.016;2022-10-16T13:28:34;19.00;99.90
29713;DHT22;16623;53.632;10.016;2022-10-16T13:31:01;19.10;99.90
29713;DHT22;16623;53.632;10.016;2022-10-16T13:33:35;19.10;99.90
29713;DHT22;16623;53.632;10.016;2022-10-16T13:36:02;19.00;99.90
29713;DHT22;16623;53.632;10.016;2022-10-16T13:38:31;19.00;99.90
29713;DHT22;16623;53.632;10.016;2022-10-16T13:41:03;22.10;99.90
29713;DHT22;16623;53.632;10.016;2022-10-16T13:43:36;18.90;99.90
29713;DHT22;16623;53.632;10.016;2022-10-16T13:46:22;18.90;99.90
29713;DHT22;16623;53.632;10.016;2022-10-16T13:49:05;19.00;99.90
29713;DHT22;16623;53.632;10.016;2022-10-16T13:51:32;18.90;99.90
29713;DHT22;16623;53.632;10.016;2022-10-16T13:53:58;19.00;99.90
29713;DHT22;16623;53.632;10.016;2022-10-16T13:56:30;19.00;99.90
29713;DHT22;16623;53.632;10.016;2022-10-16T13:59:03;19.10;99.90
29713;DHT22;16623;53.632;10.016;2022-10-16T14:01:35;18.90;99.90
29713;DHT22;16623;53.632;10.016;2022-10-16T14:04:07;18.80;99.90
29713;DHT22;16623;53.632;10.016;2022-10-16T14:06:34;18.70;99.90
29713;DHT22;16623;53.632;10.016;2022-10-16T14:09:08;18.70;99.90
29713;DHT22;16623;53.632;10.016;2022-10-16T14:11:44;18.70;99.90
29713;DHT22;16623;53.632;10.016;2022-10-16T14:14:12;18.70;99.90
29713;DHT22;16623;53.632;10.016;2022-10-16T14:16:41;18.70;99.90
29713;DHT22;16623;53.632;10.016;2022-10-16T14:19:28;18.60;99.90
29713;DHT22;16623;53.632;10.016;2022-10-16T14:21:54;18.50;99.90
29713;DHT22;16623;53.632;10.016;2022-10-16T14:24:32;18.40;99.90
29713;DHT22;16623;53.632;10.016;2022-10-16T14:26:59;18.30;99.90
29713;DHT22;16623;53.632;10.016;2022-10-16T14:29:27;18.30;99.90
29713;DHT22;16623;53.632;10.016;2022-10-16T14:31:58;18.20;99.90
29713;DHT22;16623;53.632;10.016;2022-10-16T14:34:37;18.10;99.90
29713;DHT22;16623;53.632;10.016;2022-10-16T14:37:26;18.10;99.90
29713;DHT22;16623;53.632;10.016;2022-10-16T14:39:52;18.20;99.90
29713;DHT22;16623;53.632;10.016;2022-10-16T14:42:20;18.20;99.90
29713;DHT22;16623;53.632;10.016;2022-10-16T14:44:49;18.20;99.90
29713;DHT22;16623;53.632;10.016;2022-10-16T14:47:20;18.30;99.90
29713;DHT22;16623;53.632;10.016;2022-10-16T14:49:49;18.20;99.90
29713;DHT22;16623;53.632;10.016;2022-10-16T14:52:15;18.10;99.90
29713;DHT22;16623;53.632;10.016;2022-10-16T14:54:41;18.10;99.90
29713;DHT22;16623;53.632;10.016;2022-10-16T14:57:15;18.10;99.90
29713;DHT22;16623;53.632;10.016;2022-10-16T14:59:42;18.00;99.90
29713;DHT22;16623;53.632;10.016;2022-10-16T15:02:28;18.00;99.90
29713;DHT22;16623;53.632;10.016;2022-10-16T15:04:55;17.90;99.90
29713;DHT22;16623;53.632;10.016;2022-10-16T15:07:21;18.00;99.90
29713;DHT22;16623;53.632;10.016;2022-10-16T15:09:47;17.90;99.90
29713;DHT22;16623;53.632;10.016;2022-10-16T15:12:12;17.90;99.90
29713;DHT22;16623;53.632;10.016;2022-10-16T15:14:38;17.90;99.90
29713;DHT22;16623;53.632;10.016;2022-10-16T15:17:03;17.90;99.90
29713;DHT22;16623;53.632;10.016;2022-10-16T15:19:29;17.80;99.90
29713;DHT22;16623;53.632;10.016;2022-10-16T15:21:55;17.80;99.90
29713;DHT22;16623;53.632;10.016;2022-10-16T15:24:21;17.70;99.90
29713;DHT22;16623;53.632;10.016;2022-10-16T15:26:46;17.70;99.90
29713;DHT22;16623;53.632;10.016;2022-10-16T15:29:12;17.60;99.90
29713;DHT22;16623;53.632;10.016;2022-10-16T15:31:38;17.60;99.90
29713;DHT22;16623;53.632;10.016;2022-10-16T15:34:04;17.60;99.90
29713;DHT22;16623;53.632;10.016;2022-10-16T15:36:35;17.60;99.90
29713;DHT22;16623;53.632;10.016;2022-10-16T15:39:03;17.50;99.90
29713;DHT22;16623;53.632;10.016;2022-10-16T15:41:28;17.50;99.90
29713;DHT22;16623;53.632;10.016;2022-10-16T15:43:54;17.40;99.90
29713;DHT22;16623;53.632;10.016;2022-10-16T15:46:22;17.30;99.90
29713;DHT22;16623;53.632;10.016;2022-10-16T15:48:49;17.20;99.90
29713;DHT22;16623;53.632;10.016;2022-10-16T15:51:16;17.10;99.90
29713;DHT22;16623;53.632;10.016;2022-10-16T15:53:42;17.10;99.90
29713;DHT22;16623;53.632;10.016;2022-10-16T15:56:09;17.10;99.90
29713;DHT22;16623;53.632;10.016;2022-10-16T15:58:35;17.00;99.90
29713;DHT22;16623;53.632;10.016;2022-10-16T16:01:01;16.90;99.90
29713;DHT22;16623;53.632;10.016;2022-10-16T16:03:29;16.80;99.90
29713;DHT22;16623;53.632;10.016;2022-10-16T16:05:56;16.70;99.90
29713;DHT22;16623;53.632;10.016;2022-10-16T16:08:22;16.70;99.90
29713;DHT22;16623;53.632;10.016;2022-10-16T16:11:19;16.70;99.90
29713;DHT22;16623;53.632;10.016;2022-10-16T16:13:45;16.60;99.90
29713;DHT22;16623;53.632;10.016;2022-10-16T16:16:13;16.50;99.90
29713;DHT22;16623;53.632;10.016;2022-10-16T16:18:40;16.40;99.90
29713;DHT22;16623;53.632;10.016;2022-10-16T16:21:06;16.30;99.90
29713;DHT22;16623;53.632;10.016;2022-10-16T16:23:35;16.30;99.90
29713;DHT22;16623;53.632;10.016;2022-10-16T16:26:09;16.20;99.90
29713;DHT22;16623;53.632;10.016;2022-10-16T16:28:36;16.10;99.90
29713;DHT22;16623;53.632;10.016;2022-10-16T16:31:03;16.00;99.90
29713;DHT22;16623;53.632;10.016;2022-10-16T16:33:28;15.90;99.90
29713;DHT22;16623;53.632;10.016;2022-10-16T16:35:58;15.90;99.90
29713;DHT22;16623;53.632;10.016;2022-10-16T16:38:25;15.80;99.90
29713;DHT22;16623;53.632;10.016;2022-10-16T16:40:51;15.80;99.90
29713;DHT22;16623;53.632;10.016;2022-10-16T16:43:17;15.80;99.90